createdAt,value
2022-08-01T00:00:08.945Z,75.77
2022-08-01T00:02:39.432Z,75.98
2022-08-01T00:05:07.647Z,76.07
2022-08-01T00:07:37.977Z,76.05
2022-08-01T00:10:06.519Z,76.15
2022-08-01T00:12:32.966Z,76.20
2022-08-01T00:14:59.387Z,76.39
2022-08-01T00:17:25.939Z,76.50
2022-08-01T00:19:52.621Z,76.48
2022-08-01T00:22:19.061Z,76.71
2022-08-01T00:24:45.489Z,76.56
2022-08-01T00:27:11.878Z,76.77
2022-08-01T00:30:09.437Z,76.76
2022-08-01T00:32:25.307Z,76.71
2022-08-01T00:34:51.781Z,76.91
2022-08-01T00:37:18.403Z,76.79
2022-08-01T00:39:44.834Z,76.94
2022-08-01T00:42:13.005Z,76.78
2022-08-01T00:44:40.686Z,77.10
2022-08-01T00:47:08.209Z,76.72
2022-08-01T00:49:35.411Z,76.65
2022-08-01T00:52:05.552Z,76.68
2022-08-01T00:54:32.489Z,76.89
2022-08-01T00:56:59.467Z,76.98
2022-08-01T00:59:27.074Z,76.63
2022-08-01T01:01:53.978Z,76.57
2022-08-01T01:04:20.571Z,76.54
2022-08-01T01:07:17.725Z,76.58
2022-08-01T01:09:53.238Z,76.46
2022-08-01T01:12:30.545Z,76.50
2022-08-01T01:15:40.493Z,76.49
2022-08-01T01:18:31.541Z,76.58
2022-08-01T01:21:13.866Z,76.61
2022-08-01T01:24:07.913Z,76.34
2022-08-01T01:26:44.386Z,76.78
2022-08-01T01:29:26.488Z,76.61
2022-08-01T01:31:58.257Z,76.68
2022-08-01T01:34:27.875Z,76.60
2022-08-01T01:36:57.677Z,76.39
2022-08-01T01:39:26.723Z,76.50
2022-08-01T01:41:55.950Z,76.57
2022-08-01T01:44:22.562Z,76.51
2022-08-01T01:46:51.169Z,76.27
2022-08-01T01:49:23.629Z,76.18
2022-08-01T01:52:02.146Z,76.14
2022-08-01T01:54:33.768Z,76.03
2022-08-01T01:57:02.704Z,76.15
2022-08-01T01:59:32.610Z,75.78
2022-08-01T02:02:06.304Z,76.03
2022-08-01T02:04:38.698Z,75.84
2022-08-01T02:07:07.870Z,76.06
2022-08-01T02:09:36.398Z,75.88
2022-08-01T02:12:08.860Z,75.75
2022-08-01T02:14:36.610Z,75.82
2022-08-01T02:17:04.891Z,75.88
2022-08-01T02:19:32.012Z,75.76
2022-08-01T02:22:21.512Z,75.64
2022-08-01T02:24:56.088Z,75.61
2022-08-01T02:27:27.706Z,75.59
2022-08-01T02:30:01.282Z,75.74
2022-08-01T02:32:40.841Z,75.76
2022-08-01T02:35:12.662Z,75.57
2022-08-01T02:37:44.398Z,75.80
2022-08-01T02:40:15.316Z,75.69
2022-08-01T02:42:46.352Z,75.74
2022-08-01T02:45:14.053Z,75.64
2022-08-01T02:47:43.001Z,75.69
2022-08-01T02:50:13.442Z,75.78
2022-08-01T02:52:42.633Z,75.46
2022-08-01T02:55:11.250Z,75.87
2022-08-01T02:57:51.865Z,76.11
2022-08-01T03:00:19.952Z,76.36
2022-08-01T03:02:49.506Z,76.57
2022-08-01T03:05:18.057Z,76.67
2022-08-01T03:07:45.827Z,76.79
2022-08-01T03:10:17.046Z,76.92
2022-08-01T03:12:45.586Z,77.22
2022-08-01T03:15:16.741Z,77.07
2022-08-01T03:17:46.615Z,77.05
2022-08-01T03:20:15.899Z,77.10
2022-08-01T03:22:44.524Z,77.07
2022-08-01T03:25:13.493Z,77.12
2022-08-01T03:27:42.741Z,77.08
2022-08-01T03:30:11.433Z,77.23
2022-08-01T03:32:38.083Z,77.02
2022-08-01T03:35:05.110Z,77.27
2022-08-01T03:38:14.823Z,77.10
2022-08-01T03:40:44.617Z,77.49
2022-08-01T03:43:21.222Z,77.85
2022-08-01T03:45:52.259Z,77.74
2022-08-01T03:48:23.442Z,77.71
2022-08-01T03:50:53.269Z,77.37
2022-08-01T03:53:25.702Z,77.61
2022-08-01T03:55:54.383Z,77.65
2022-08-01T03:58:22.205Z,77.60
2022-08-01T04:00:49.412Z,77.58
2022-08-01T04:03:16.241Z,77.67
2022-08-01T04:05:43.628Z,77.46
2022-08-01T04:08:10.096Z,77.49
2022-08-01T04:10:37.835Z,77.56
2022-08-01T04:13:04.249Z,77.70
2022-08-01T04:15:31.349Z,77.67
2022-08-01T04:17:57.841Z,77.80
2022-08-01T04:20:24.298Z,77.80
2022-08-01T04:22:51.302Z,77.44
2022-08-01T04:25:25.918Z,77.62
2022-08-01T04:27:54.095Z,77.80
2022-08-01T04:30:30.683Z,78.00
2022-08-01T04:32:59.857Z,78.05
2022-08-01T04:36:01.503Z,77.79
2022-08-01T04:38:20.246Z,77.69
2022-08-01T04:40:47.262Z,77.68
2022-08-01T04:43:14.905Z,77.82
2022-08-01T04:45:44.650Z,77.94
2022-08-01T04:48:12.149Z,77.96
2022-08-01T04:50:38.674Z,77.77
2022-08-01T04:53:05.127Z,77.75
2022-08-01T04:55:32.249Z,77.84
2022-08-01T04:57:58.718Z,77.85
2022-08-01T05:00:26.196Z,77.93
2022-08-01T05:02:52.623Z,77.91
2022-08-01T05:05:19.049Z,78.05
2022-08-01T05:07:45.819Z,78.21
2022-08-01T05:10:12.805Z,78.23
2022-08-01T05:12:39.365Z,78.65
2022-08-01T05:15:11.823Z,78.80
2022-08-01T05:17:43.111Z,78.74
2022-08-01T05:20:10.718Z,78.51
2022-08-01T05:22:37.437Z,78.58
2022-08-01T05:25:05.853Z,78.58
2022-08-01T05:27:33.436Z,78.50
2022-08-01T05:30:00.424Z,78.30
2022-08-01T05:32:26.919Z,78.03
2022-08-01T05:34:53.594Z,78.14
2022-08-01T05:37:20.041Z,77.88
2022-08-01T05:39:46.444Z,77.80
2022-08-01T05:42:12.937Z,78.02
2022-08-01T05:44:39.348Z,78.11
2022-08-01T05:47:05.824Z,77.60
2022-08-01T05:49:32.348Z,77.68
2022-08-01T05:51:59.000Z,77.95
2022-08-01T05:54:25.773Z,77.56
2022-08-01T05:56:52.209Z,77.58
2022-08-01T05:59:18.834Z,77.73
2022-08-01T06:01:45.273Z,77.76
2022-08-01T06:04:11.733Z,77.49
2022-08-01T06:06:38.171Z,77.67
2022-08-01T06:09:04.594Z,77.72
2022-08-01T06:11:31.055Z,77.44
2022-08-01T06:13:57.482Z,77.60
2022-08-01T06:16:24.176Z,77.52
2022-08-01T06:18:53.825Z,77.27
2022-08-01T06:21:22.749Z,76.93
2022-08-01T06:23:49.162Z,76.93
2022-08-01T06:26:18.931Z,76.89
2022-08-01T06:28:45.371Z,76.73
2022-08-01T06:31:13.491Z,76.49
2022-08-01T06:33:40.104Z,76.45
2022-08-01T06:36:06.704Z,76.13
2022-08-01T06:38:33.098Z,75.66
2022-08-01T06:40:59.534Z,75.72
2022-08-01T06:43:25.929Z,75.54
2022-08-01T06:45:52.327Z,75.04
2022-08-01T06:48:18.877Z,74.87
2022-08-01T06:50:45.303Z,74.70
2022-08-01T06:53:11.793Z,74.64
2022-08-01T06:55:38.262Z,74.79
2022-08-01T06:58:04.662Z,74.80
2022-08-01T07:00:31.677Z,74.43
2022-08-01T07:03:00.749Z,74.43
2022-08-01T07:05:27.894Z,74.24
2022-08-01T07:07:54.727Z,73.81
2022-08-01T07:10:21.220Z,73.56
2022-08-01T07:12:47.643Z,73.33
2022-08-01T07:15:15.177Z,73.28
2022-08-01T07:17:43.226Z,72.71
2022-08-01T07:20:12.280Z,72.50
2022-08-01T07:22:40.506Z,72.21
2022-08-01T07:25:08.732Z,72.10
2022-08-01T07:27:37.545Z,71.97
2022-08-01T07:30:05.750Z,71.96
2022-08-01T07:32:32.383Z,71.91
2022-08-01T07:34:58.860Z,71.48
2022-08-01T07:37:48.140Z,71.33
2022-08-01T07:40:13.257Z,71.27
2022-08-01T07:42:39.749Z,71.08
2022-08-01T07:45:06.492Z,70.80
2022-08-01T07:47:32.909Z,70.46
2022-08-01T07:50:04.231Z,70.03
2022-08-01T07:52:31.181Z,70.02
2022-08-01T07:54:58.209Z,68.77
2022-08-01T07:57:25.252Z,68.61
2022-08-01T07:59:52.452Z,68.69
2022-08-01T08:02:19.081Z,68.34
2022-08-01T08:04:48.908Z,68.00
2022-08-01T08:07:16.406Z,67.83
2022-08-01T08:09:42.889Z,67.36
2022-08-01T08:12:10.764Z,66.81
2022-08-01T08:14:37.542Z,66.61
2022-08-01T08:17:05.061Z,65.98
2022-08-01T08:19:38.515Z,65.38
2022-08-01T08:22:06.887Z,65.32
2022-08-01T08:24:33.729Z,65.33
2022-08-01T08:27:01.683Z,65.53
2022-08-01T08:29:30.706Z,65.32
2022-08-01T08:31:58.500Z,64.55
2022-08-01T08:34:26.772Z,64.43
2022-08-01T08:36:53.856Z,64.70
2022-08-01T08:39:20.380Z,64.38
2022-08-01T08:41:49.414Z,63.89
2022-08-01T08:44:17.027Z,64.19
2022-08-01T08:46:46.047Z,64.36
2022-08-01T08:49:16.503Z,64.66
2022-08-01T08:51:44.821Z,65.17
2022-08-01T08:54:14.155Z,64.86
2022-08-01T08:56:42.477Z,64.89
2022-08-01T08:59:09.174Z,64.44
2022-08-01T09:01:36.276Z,64.40
2022-08-01T09:04:05.960Z,64.02
2022-08-01T09:06:33.506Z,64.31
2022-08-01T09:09:00.674Z,64.31
2022-08-01T09:11:27.530Z,63.63
2022-08-01T09:14:10.754Z,63.15
2022-08-01T09:16:47.985Z,62.29
2022-08-01T09:19:40.171Z,62.44
2022-08-01T09:22:10.904Z,61.66
2022-08-01T09:24:40.198Z,61.24
2022-08-01T09:27:21.936Z,61.99
2022-08-01T09:29:49.958Z,62.30
2022-08-01T09:32:34.241Z,62.33
2022-08-01T09:35:30.161Z,61.63
2022-08-01T09:38:20.453Z,61.90
2022-08-01T09:40:58.542Z,62.00
2022-08-01T09:43:27.847Z,60.82
2022-08-01T09:45:57.736Z,60.87
2022-08-01T09:48:27.861Z,60.80
2022-08-01T09:50:55.573Z,60.78
2022-08-01T09:53:30.821Z,60.22
2022-08-01T09:56:12.976Z,59.93
2022-08-01T09:59:01.410Z,59.52
2022-08-01T10:01:42.083Z,59.36
2022-08-01T10:04:15.817Z,59.33
2022-08-01T10:06:53.291Z,59.48
2022-08-01T10:09:39.897Z,59.58
2022-08-01T10:12:07.929Z,58.62
2022-08-01T10:14:37.146Z,58.36
2022-08-01T10:17:07.066Z,58.28
2022-08-01T10:19:36.568Z,58.60
2022-08-01T10:22:08.550Z,58.58
2022-08-01T10:24:42.757Z,56.87
2022-08-01T10:27:12.501Z,57.59
2022-08-01T10:30:06.822Z,58.10
2022-08-01T10:32:39.720Z,56.86
2022-08-01T10:35:15.006Z,56.78
2022-08-01T10:37:52.062Z,57.32
2022-08-01T10:40:30.256Z,58.22
2022-08-01T10:42:57.718Z,57.49
2022-08-01T10:45:26.547Z,58.40
2022-08-01T10:48:06.901Z,58.41
2022-08-01T10:50:38.255Z,58.50
2022-08-01T10:53:23.242Z,58.00
2022-08-01T10:55:57.315Z,56.37
2022-08-01T10:58:30.055Z,56.92
2022-08-01T11:01:15.658Z,57.67
2022-08-01T11:04:01.316Z,56.61
2022-08-01T11:06:33.992Z,56.05
2022-08-01T11:09:12.581Z,56.06
2022-08-01T11:12:23.407Z,57.09
2022-08-01T11:15:00.219Z,56.13
2022-08-01T11:17:43.021Z,56.78
2022-08-01T11:20:13.685Z,56.30
2022-08-01T11:23:17.068Z,55.96
2022-08-01T11:26:06.787Z,56.42
2022-08-01T11:28:35.754Z,57.13
2022-08-01T11:31:03.275Z,56.48
2022-08-01T11:33:45.620Z,56.74
2022-08-01T11:36:32.217Z,55.26
2022-08-01T11:39:13.445Z,55.55
2022-08-01T11:41:42.060Z,55.92
2022-08-01T11:44:12.865Z,56.42
2022-08-01T11:47:07.345Z,56.10
2022-08-01T11:49:55.504Z,56.12
2022-08-01T11:52:27.683Z,55.96
2022-08-01T11:54:56.842Z,55.15
2022-08-01T11:57:35.520Z,55.53
2022-08-01T12:00:11.108Z,54.96
2022-08-01T12:02:42.358Z,55.62
2022-08-01T12:05:12.668Z,54.85
2022-08-01T12:07:42.439Z,54.64
2022-08-01T12:10:17.199Z,55.06
2022-08-01T12:12:50.786Z,54.92
2022-08-01T12:15:19.009Z,55.51
2022-08-01T12:17:58.013Z,55.36
2022-08-01T12:20:36.741Z,54.20
2022-08-01T12:23:09.558Z,54.82
2022-08-01T12:25:37.270Z,55.25
2022-08-01T12:28:05.651Z,55.36
2022-08-01T12:30:36.200Z,55.14
2022-08-01T12:33:09.652Z,54.48
2022-08-01T12:35:37.456Z,55.27
2022-08-01T12:38:15.932Z,55.16
2022-08-01T12:40:45.539Z,54.66
2022-08-01T12:43:27.009Z,55.12
2022-08-01T12:45:58.112Z,54.16
2022-08-01T12:48:25.769Z,55.07
2022-08-01T12:50:53.460Z,55.01
2022-08-01T12:53:21.639Z,55.19
2022-08-01T12:55:59.193Z,54.78
2022-08-01T12:58:34.291Z,54.76
2022-08-01T13:01:06.248Z,54.56
2022-08-01T13:03:32.785Z,54.65
2022-08-01T13:05:59.703Z,54.23
2022-08-01T13:08:35.586Z,54.22
2022-08-01T13:11:17.299Z,54.08
2022-08-01T13:13:49.624Z,54.78
2022-08-01T13:16:31.082Z,54.48
2022-08-01T13:19:08.403Z,54.56
2022-08-01T13:21:52.583Z,54.19
2022-08-01T13:24:30.495Z,53.72
2022-08-01T13:27:03.393Z,54.21
2022-08-01T13:29:34.934Z,54.01
2022-08-01T13:32:28.490Z,54.39
2022-08-01T13:35:08.860Z,54.57
2022-08-01T13:37:37.183Z,54.39
2022-08-01T13:40:10.059Z,54.13
2022-08-01T13:42:36.939Z,54.66
2022-08-01T13:45:14.191Z,54.01
2022-08-01T13:48:03.158Z,54.09
2022-08-01T13:50:29.510Z,54.07
2022-08-01T13:52:55.950Z,54.35
2022-08-01T13:55:22.325Z,54.14
2022-08-01T13:57:48.724Z,53.69
2022-08-01T14:00:15.529Z,53.79
2022-08-01T14:02:41.978Z,53.66
2022-08-01T14:05:08.615Z,53.91
2022-08-01T14:07:35.045Z,52.34
2022-08-01T14:10:18.236Z,53.43
2022-08-01T14:12:45.744Z,53.39
2022-08-01T14:15:12.405Z,54.15
2022-08-01T14:17:40.092Z,53.96
2022-08-01T14:20:14.114Z,52.92
2022-08-01T14:22:41.434Z,53.15
2022-08-01T14:25:08.898Z,53.57
2022-08-01T14:27:37.063Z,53.32
2022-08-01T14:30:07.420Z,53.26
2022-08-01T14:32:34.379Z,52.79
2022-08-01T14:35:06.120Z,53.16
2022-08-01T14:37:38.167Z,53.28
2022-08-01T14:40:09.768Z,53.00
2022-08-01T14:42:38.451Z,53.00
2022-08-01T14:45:09.246Z,52.49
2022-08-01T14:47:37.734Z,53.13
2022-08-01T14:50:07.040Z,51.89
2022-08-01T14:52:34.395Z,52.45
2022-08-01T14:55:01.324Z,52.78
2022-08-01T14:57:28.424Z,52.35
2022-08-01T14:59:54.854Z,51.90
2022-08-01T15:02:22.138Z,52.23
2022-08-01T15:04:49.415Z,51.77
2022-08-01T15:07:17.560Z,51.83
2022-08-01T15:09:44.457Z,51.52
2022-08-01T15:12:11.421Z,51.51
2022-08-01T15:14:50.221Z,51.42
2022-08-01T15:17:30.229Z,51.88
2022-08-01T15:19:58.159Z,52.49
2022-08-01T15:22:25.878Z,52.26
2022-08-01T15:24:57.271Z,52.22
2022-08-01T15:27:25.687Z,51.92
2022-08-01T15:29:52.357Z,51.88
2022-08-01T15:32:19.117Z,51.21
2022-08-01T15:34:45.930Z,52.07
2022-08-01T15:37:12.911Z,51.54
2022-08-01T15:39:39.934Z,51.10
2022-08-01T15:42:09.856Z,51.48
2022-08-01T15:44:37.000Z,51.59
2022-08-01T15:47:04.666Z,52.48
2022-08-01T15:49:31.378Z,52.58
2022-08-01T15:51:58.058Z,52.35
2022-08-01T15:54:25.063Z,52.62
2022-08-01T15:56:51.665Z,52.64
2022-08-01T15:59:18.225Z,52.58
2022-08-01T16:01:44.943Z,52.24
2022-08-01T16:04:11.535Z,52.46
2022-08-01T16:06:38.001Z,51.95
2022-08-01T16:09:06.272Z,51.65
2022-08-01T16:11:32.649Z,51.84
2022-08-01T16:13:59.581Z,52.01
2022-08-01T16:16:26.042Z,52.00
2022-08-01T16:18:53.872Z,52.16
2022-08-01T16:21:20.723Z,53.02
2022-08-01T16:23:47.150Z,51.85
2022-08-01T16:26:28.210Z,51.43
2022-08-01T16:28:54.978Z,52.04
2022-08-01T16:31:23.125Z,52.64
2022-08-01T16:34:07.976Z,52.39
2022-08-01T16:36:36.075Z,52.13
2022-08-01T16:39:03.690Z,52.23
2022-08-01T16:41:30.106Z,51.76
2022-08-01T16:43:59.620Z,52.33
2022-08-01T16:46:26.827Z,52.65
2022-08-01T16:48:54.184Z,51.51
2022-08-01T16:51:20.838Z,51.57
2022-08-01T16:53:47.377Z,52.15
2022-08-01T16:56:13.764Z,52.48
2022-08-01T16:58:40.226Z,52.54
2022-08-01T17:01:59.775Z,52.28
2022-08-01T17:03:55.867Z,51.46
2022-08-01T17:06:26.148Z,51.53
2022-08-01T17:08:52.566Z,51.49
2022-08-01T17:11:19.005Z,51.87
2022-08-01T17:13:45.542Z,51.84
2022-08-01T17:16:12.178Z,51.58
2022-08-01T17:18:38.869Z,51.75
2022-08-01T17:21:05.434Z,52.13
2022-08-01T17:23:32.093Z,51.86
2022-08-01T17:25:59.646Z,52.01
2022-08-01T17:28:26.222Z,51.73
2022-08-01T17:30:52.634Z,51.57
2022-08-01T17:33:19.037Z,51.82
2022-08-01T17:35:45.482Z,52.13
2022-08-01T17:38:11.894Z,52.23
2022-08-01T17:40:40.413Z,51.66
2022-08-01T17:43:07.789Z,50.74
2022-08-01T17:45:39.432Z,51.35
2022-08-01T17:48:18.660Z,52.06
2022-08-01T17:50:48.704Z,51.97
2022-08-01T17:53:21.062Z,51.35
2022-08-01T17:55:54.052Z,51.00
2022-08-01T17:58:48.982Z,51.33
2022-08-01T18:01:16.778Z,51.07
2022-08-01T18:03:43.626Z,51.60
2022-08-01T18:06:13.456Z,51.28
2022-08-01T18:08:41.718Z,51.30
2022-08-01T18:11:08.479Z,51.64
2022-08-01T18:13:35.925Z,52.00
2022-08-01T18:16:06.690Z,51.95
2022-08-01T18:18:34.242Z,52.35
2022-08-01T18:21:04.610Z,52.08
2022-08-01T18:23:33.387Z,51.57
2022-08-01T18:26:03.389Z,51.70
2022-08-01T18:28:35.115Z,52.03
2022-08-01T18:31:03.621Z,52.12
2022-08-01T18:33:30.139Z,52.05
2022-08-01T18:36:01.674Z,51.55
2022-08-01T18:38:29.199Z,51.69
2022-08-01T18:40:55.887Z,51.53
2022-08-01T18:43:22.281Z,52.08
2022-08-01T18:45:48.734Z,52.50
2022-08-01T18:48:15.178Z,52.18
2022-08-01T18:50:41.617Z,52.24
2022-08-01T18:53:08.055Z,52.27
2022-08-01T18:55:34.503Z,51.80
2022-08-01T18:58:00.969Z,51.24
2022-08-01T19:00:27.448Z,51.64
2022-08-01T19:02:53.983Z,51.85
2022-08-01T19:05:20.384Z,51.87
2022-08-01T19:08:06.805Z,51.76
2022-08-01T19:10:34.387Z,52.02
2022-08-01T19:13:02.126Z,51.92
2022-08-01T19:15:28.718Z,52.05
2022-08-01T19:17:55.154Z,52.28
2022-08-01T19:20:21.605Z,52.28
2022-08-01T19:22:48.166Z,52.33
2022-08-01T19:25:15.559Z,52.15
2022-08-01T19:27:49.424Z,52.28
2022-08-01T19:30:18.268Z,52.56
2022-08-01T19:32:46.633Z,52.42
2022-08-01T19:35:16.704Z,52.66
2022-08-01T19:37:45.815Z,52.52
2022-08-01T19:40:26.059Z,52.54
2022-08-01T19:42:56.076Z,52.47
2022-08-01T19:45:22.785Z,52.52
2022-08-01T19:47:56.144Z,52.79
2022-08-01T19:50:26.217Z,53.54
2022-08-01T19:52:55.849Z,53.40
2022-08-01T19:55:24.604Z,53.21
2022-08-01T19:58:17.373Z,53.47
2022-08-01T20:00:40.336Z,53.72
2022-08-01T20:03:08.875Z,54.00
2022-08-01T20:05:37.034Z,53.83
2022-08-01T20:08:03.657Z,53.92
2022-08-01T20:10:32.098Z,54.08
2022-08-01T20:12:58.669Z,54.09
2022-08-01T20:15:25.548Z,54.19
2022-08-01T20:17:52.057Z,54.33
2022-08-01T20:20:18.530Z,54.46
2022-08-01T20:22:47.601Z,54.48
2022-08-01T20:25:15.254Z,54.75
2022-08-01T20:27:44.327Z,54.81
2022-08-01T20:30:12.073Z,54.88
2022-08-01T20:32:40.224Z,55.30
2022-08-01T20:35:07.623Z,55.44
2022-08-01T20:38:05.552Z,55.52
2022-08-01T20:40:26.774Z,55.71
2022-08-01T20:42:53.765Z,55.70
2022-08-01T20:45:22.029Z,55.50
2022-08-01T20:47:49.764Z,55.21
2022-08-01T20:50:53.400Z,55.23
2022-08-01T20:53:23.519Z,54.85
2022-08-01T20:56:09.017Z,54.96
2022-08-01T20:59:03.493Z,54.86
2022-08-01T21:01:35.253Z,54.83
2022-08-01T21:04:08.733Z,54.70
2022-08-01T21:06:42.447Z,54.64
2022-08-01T21:09:13.253Z,54.74
2022-08-01T21:11:50.213Z,54.88
2022-08-01T21:14:20.630Z,54.88
2022-08-01T21:16:58.346Z,55.16
2022-08-01T21:19:29.436Z,55.39
2022-08-01T21:22:11.728Z,55.22
2022-08-01T21:24:58.334Z,55.52
2022-08-01T21:27:33.591Z,55.74
2022-08-01T21:30:05.920Z,55.91
2022-08-01T21:32:34.653Z,56.00
2022-08-01T21:35:02.761Z,56.15
2022-08-01T21:37:33.767Z,56.08
2022-08-01T21:40:02.694Z,55.96
2022-08-01T21:42:39.157Z,55.98
2022-08-01T21:45:07.185Z,56.34
2022-08-01T21:47:34.141Z,56.96
2022-08-01T21:50:04.756Z,56.79
2022-08-01T21:52:44.618Z,56.96
2022-08-01T21:55:34.903Z,57.13
2022-08-01T21:58:13.636Z,57.33
2022-08-01T22:00:44.773Z,56.94
2022-08-01T22:03:19.981Z,57.05
2022-08-01T22:05:50.141Z,57.23
2022-08-01T22:08:53.726Z,57.19
2022-08-01T22:11:23.678Z,57.29
2022-08-01T22:13:55.054Z,57.49
2022-08-01T22:16:22.386Z,57.24
2022-08-01T22:18:49.620Z,57.23
2022-08-01T22:21:17.367Z,57.08
2022-08-01T22:23:44.479Z,57.04
2022-08-01T22:26:12.173Z,56.76
2022-08-01T22:28:40.290Z,56.83
2022-08-01T22:31:07.370Z,56.55
2022-08-01T22:33:36.512Z,56.61
2022-08-01T22:36:05.344Z,56.34
2022-08-01T22:38:32.680Z,56.36
2022-08-01T22:41:05.254Z,56.23
2022-08-01T22:43:34.716Z,56.01
2022-08-01T22:46:16.952Z,56.15
2022-08-01T22:48:53.475Z,56.25
2022-08-01T22:51:34.101Z,56.30
2022-08-01T22:54:05.700Z,56.27
2022-08-01T22:56:37.291Z,56.52
2022-08-01T22:59:09.524Z,56.50
2022-08-01T23:01:41.314Z,56.16
2022-08-01T23:04:47.438Z,56.24
2022-08-01T23:07:23.874Z,56.46
2022-08-01T23:09:54.929Z,56.29
2022-08-01T23:12:26.689Z,56.48
2022-08-01T23:14:58.390Z,56.30
2022-08-01T23:17:29.317Z,55.87
2022-08-01T23:20:01.591Z,55.96
2022-08-01T23:22:31.244Z,55.96
2022-08-01T23:25:05.272Z,55.96
2022-08-01T23:28:04.447Z,55.82
2022-08-01T23:30:35.645Z,55.62
2022-08-01T23:33:02.783Z,55.65
2022-08-01T23:35:30.372Z,55.90
2022-08-01T23:38:01.647Z,55.88
2022-08-01T23:40:29.872Z,56.04
2022-08-01T23:42:56.316Z,55.94
2022-08-01T23:45:23.315Z,55.93
2022-08-01T23:47:50.218Z,55.91
2022-08-01T23:50:16.637Z,55.79
2022-08-01T23:52:49.857Z,55.75
2022-08-01T23:55:36.584Z,55.80
2022-08-01T23:58:06.287Z,55.69
